Time;durP1;ratioP1;P1;durP2;ratioP2;P2;SDS_P1;SDS_P2;PMS_P1;PMS_P2;Temp;Humidity;BMP_temperature;BMP_pressure;BME280_temperature;BME280_humidity;BME280_pressure;Samples;Min_cycle;Max_cycle;Signal;HPM_P1;HPM_P2
2023/08/25 00:00:14;;;;;;;3.40;2.30;;;19.10;99.90;;;;;;5017969;28;20204;-48
2023/08/25 00:02:42;;;;;;;2.50;2.10;;;19.10;99.90;;;;;;5019194;28;21000;-52
2023/08/25 00:05:09;;;;;;;2.33;2.17;;;19.10;99.90;;;;;;5030524;28;20187;-50
2023/08/25 00:07:36;;;;;;;3.47;2.23;;;19.10;99.90;;;;;;5027691;28;20192;-55
2023/08/25 00:10:04;;;;;;;3.80;2.10;;;19.00;99.90;;;;;;5007937;28;20207;-49
2023/08/25 00:12:30;;;;;;;4.27;2.43;;;19.00;99.90;;;;;;5030017;28;20203;-46
2023/08/25 00:14:59;;;;;;;3.73;2.50;;;19.00;99.90;;;;;;5020389;28;20228;-52
2023/08/25 00:17:25;;;;;;;3.40;2.50;;;18.90;99.90;;;;;;5027758;28;20203;-47
2023/08/25 00:19:52;;;;;;;2.73;2.43;;;18.90;99.90;;;;;;5027015;28;20662;-54
2023/08/25 00:22:19;;;;;;;5.17;2.70;;;18.90;99.90;;;;;;5032823;28;20219;-45
2023/08/25 00:24:46;;;;;;;4.63;3.00;;;18.90;99.90;;;;;;5009500;28;20321;-48
2023/08/25 00:27:13;;;;;;;3.27;2.87;;;18.90;99.90;;;;;;5031309;28;20196;-48
2023/08/25 00:29:39;;;;;;;4.63;3.23;;;18.90;99.90;;;;;;5017569;28;20204;-52
2023/08/25 00:32:08;;;;;;;3.80;3.37;;;18.90;99.90;;;;;;5026897;28;20249;-51
2023/08/25 00:34:34;;;;;;;4.73;4.33;;;18.90;99.90;;;;;;5017094;28;20832;-50
2023/08/25 00:37:02;;;;;;;5.07;3.80;;;19.00;99.90;;;;;;5028992;28;20586;-50
2023/08/25 00:39:28;;;;;;;3.97;3.67;;;19.00;99.90;;;;;;5008235;28;20569;-47
2023/08/25 00:41:56;;;;;;;5.40;4.47;;;19.10;99.90;;;;;;5027302;28;20681;-50
2023/08/25 00:44:25;;;;;;;5.90;4.43;;;19.10;99.90;;;;;;5019565;28;20216;-46
2023/08/25 00:46:53;;;;;;;5.20;4.70;;;19.20;99.90;;;;;;5023056;28;20565;-53
2023/08/25 00:49:22;;;;;;;5.27;4.87;;;19.20;99.90;;;;;;5017246;28;20203;-45
2023/08/25 00:51:51;;;;;;;5.03;4.60;;;19.20;99.90;;;;;;5022596;28;20196;-52
2023/08/25 00:54:19;;;;;;;5.70;5.20;;;19.20;99.90;;;;;;5023583;28;20262;-46
2023/08/25 00:56:49;;;;;;;5.57;5.00;;;19.20;99.90;;;;;;5008774;28;20452;-51
2023/08/25 00:59:15;;;;;;;5.43;4.80;;;19.20;99.90;;;;;;5025405;28;20202;-50
2023/08/25 01:01:45;;;;;;;5.70;5.20;;;19.20;99.90;;;;;;5014496;28;20199;-49
2023/08/25 01:04:13;;;;;;;5.70;5.17;;;19.20;99.90;;;;;;5015235;28;20317;-50
2023/08/25 01:06:41;;;;;;;5.53;5.07;;;19.20;99.90;;;;;;5018236;28;20196;-50
2023/08/25 01:09:10;;;;;;;5.77;5.23;;;19.20;99.90;;;;;;5021232;28;20771;-52
2023/08/25 01:11:45;;;;;;;5.80;5.30;;;19.20;99.90;;;;;;5005886;28;20196;-50
2023/08/25 01:14:22;;;;;;;5.10;4.80;;;19.00;99.90;;;;;;5021722;28;20222;-54
2023/08/25 01:16:58;;;;;;;5.53;5.03;;;19.30;99.90;;;;;;5024631;28;20273;-46
2023/08/25 01:19:41;;;;;;;5.10;4.63;;;19.80;99.90;;;;;;5032508;28;20195;-53
2023/08/25 01:22:14;;;;;;;5.67;5.17;;;19.20;99.90;;;;;;5004699;28;20198;-44
2023/08/25 01:24:43;;;;;;;6.27;5.67;;;19.10;99.90;;;;;;5026313;28;20264;-45
2023/08/25 01:27:13;;;;;;;7.40;5.03;;;19.20;99.90;;;;;;5009062;28;20689;-45
2023/08/25 01:29:42;;;;;;;5.67;5.27;;;19.20;99.90;;;;;;5028103;28;20188;-48
2023/08/25 01:32:09;;;;;;;7.13;5.50;;;19.20;99.90;;;;;;5021582;28;20195;-52
2023/08/25 01:34:36;;;;;;;5.87;5.30;;;19.30;99.90;;;;;;5026946;28;20337;-52
2023/08/25 01:37:10;;;;;;;5.87;5.47;;;19.30;99.90;;;;;;5021293;28;20597;-48
2023/08/25 01:39:41;;;;;;;5.93;5.43;;;19.30;99.90;;;;;;5024573;28;20866;-54
2023/08/25 01:42:09;;;;;;;6.97;5.80;;;19.30;99.90;;;;;;5029771;28;20200;-45
2023/08/25 01:44:40;;;;;;;6.17;5.57;;;19.30;99.90;;;;;;5004196;28;20226;-56
2023/08/25 01:47:08;;;;;;;6.13;5.53;;;19.30;99.90;;;;;;5017880;28;20242;-43
2023/08/25 01:49:38;;;;;;;6.33;5.83;;;19.30;99.90;;;;;;5022795;28;20215;-44
2023/08/25 01:52:07;;;;;;;6.57;6.07;;;19.30;99.90;;;;;;5026231;28;20665;-51
2023/08/25 01:54:36;;;;;;;6.30;5.80;;;19.30;99.90;;;;;;5015291;28;20244;-49
2023/08/25 01:57:03;;;;;;;6.40;5.90;;;19.30;99.90;;;;;;5026296;28;20208;-49
2023/08/25 01:59:30;;;;;;;7.33;6.73;;;19.40;99.90;;;;;;5003662;28;20630;-45
2023/08/25 02:01:58;;;;;;;7.30;6.70;;;19.30;99.90;;;;;;5015178;28;20351;-50
2023/08/25 02:04:25;;;;;;;7.23;6.53;;;19.30;99.90;;;;;;5022840;28;20223;-46
2023/08/25 02:06:51;;;;;;;12.33;7.67;;;19.30;99.90;;;;;;5020103;28;20457;-47
2023/08/25 02:09:18;;;;;;;8.10;7.40;;;19.30;99.90;;;;;;5016422;28;20255;-48
2023/08/25 02:11:45;;;;;;;9.73;8.67;;;19.30;99.90;;;;;;5020709;28;20203;-48
2023/08/25 02:14:21;;;;;;;11.47;9.40;;;19.40;99.90;;;;;;5019739;28;20304;-47
2023/08/25 02:16:48;;;;;;;11.43;9.27;;;19.40;99.90;;;;;;5003545;28;20239;-47
2023/08/25 02:19:16;;;;;;;10.30;9.27;;;19.40;99.90;;;;;;5034003;28;20277;-44
2023/08/25 02:21:43;;;;;;;12.20;10.87;;;19.40;99.90;;;;;;5035065;28;20187;-48
2023/08/25 02:24:10;;;;;;;13.03;11.07;;;19.40;99.90;;;;;;5011102;28;20897;-43
2023/08/25 02:26:37;;;;;;;13.07;10.50;;;19.50;99.90;;;;;;5027624;28;20202;-47
2023/08/25 02:29:04;;;;;;;11.40;10.30;;;19.50;99.90;;;;;;5021603;28;20259;-52
2023/08/25 02:31:30;;;;;;;14.23;12.67;;;19.50;99.90;;;;;;5003631;28;20200;-46
2023/08/25 02:33:57;;;;;;;13.40;12.00;;;19.50;99.90;;;;;;5018639;28;20227;-54
2023/08/25 02:36:25;;;;;;;14.27;12.93;;;19.50;99.90;;;;;;5028853;28;20208;-44
2023/08/25 02:38:54;;;;;;;15.60;13.87;;;19.60;99.90;;;;;;5026175;28;20262;-56
2023/08/25 02:41:21;;;;;;;14.10;12.87;;;19.60;99.90;;;;;;5014477;28;20191;-47
2023/08/25 02:43:47;;;;;;;15.13;12.83;;;19.60;99.90;;;;;;5025137;28;20219;-49
2023/08/25 02:46:14;;;;;;;17.67;13.83;;;19.60;99.90;;;;;;4995313;28;20235;-45
2023/08/25 02:48:41;;;;;;;15.03;13.63;;;19.60;99.90;;;;;;5013953;28;20721;-50
2023/08/25 02:51:08;;;;;;;15.93;13.80;;;19.60;99.90;;;;;;5024444;28;20202;-53
2023/08/25 02:53:36;;;;;;;15.27;13.17;;;19.60;99.90;;;;;;5023121;28;20287;-47
2023/08/25 02:56:03;;;;;;;15.13;13.47;;;19.60;99.90;;;;;;5011877;28;20282;-52
2023/08/25 02:58:30;;;;;;;14.90;13.40;;;19.60;99.90;;;;;;5030726;28;20209;-43
2023/08/25 03:00:59;;;;;;;15.40;13.60;;;19.60;99.90;;;;;;5008306;28;20211;-54
2023/08/25 03:03:26;;;;;;;15.60;13.93;;;19.50;99.90;;;;;;5020735;28;20228;-47
2023/08/25 03:05:53;;;;;;;17.07;13.80;;;19.50;99.90;;;;;;5035026;28;20672;-53
2023/08/25 03:08:22;;;;;;;15.83;14.13;;;19.50;99.90;;;;;;5025192;28;20872;-46
2023/08/25 03:10:52;;;;;;;16.67;14.97;;;19.50;99.90;;;;;;5024039;28;20187;-51
2023/08/25 03:13:19;;;;;;;16.57;13.57;;;19.50;99.90;;;;;;5019169;28;20962;-43
2023/08/25 03:15:48;;;;;;;15.90;13.80;;;19.50;99.90;;;;;;5028344;28;20606;-47
2023/08/25 03:18:16;;;;;;;15.50;13.90;;;19.50;99.90;;;;;;5007074;28;20248;-48
2023/08/25 03:20:42;;;;;;;15.97;14.57;;;19.50;99.90;;;;;;5026666;28;20196;-48
2023/08/25 03:23:09;;;;;;;16.67;14.83;;;19.50;99.90;;;;;;5038073;28;20942;-47
2023/08/25 03:25:38;;;;;;;17.17;15.37;;;19.40;99.90;;;;;;5031683;28;20198;-43
2023/08/25 03:28:07;;;;;;;17.00;15.20;;;19.50;99.90;;;;;;5022744;28;20631;-53
2023/08/25 03:30:33;;;;;;;18.77;15.60;;;19.40;99.90;;;;;;5036383;28;20191;-48
2023/08/25 03:33:00;;;;;;;17.50;15.67;;;19.40;99.90;;;;;;4998060;28;20235;-48
2023/08/25 03:35:27;;;;;;;22.70;16.50;;;19.40;99.90;;;;;;5014771;28;20199;-48
2023/08/25 03:37:54;;;;;;;17.90;16.00;;;19.40;99.90;;;;;;5032153;28;20210;-49
2023/08/25 03:40:21;;;;;;;20.80;16.77;;;19.30;99.90;;;;;;5028069;28;20196;-53
2023/08/25 03:42:47;;;;;;;18.40;16.47;;;19.40;99.90;;;;;;5022994;28;20219;-42
2023/08/25 03:45:16;;;;;;;19.67;17.60;;;19.40;99.90;;;;;;5032475;28;20207;-55
2023/08/25 03:47:43;;;;;;;20.43;17.43;;;19.40;99.90;;;;;;5013879;28;20330;-45
2023/08/25 03:50:10;;;;;;;18.80;16.13;;;19.40;99.90;;;;;;5018702;28;20224;-54
2023/08/25 03:52:38;;;;;;;20.90;16.90;;;19.40;99.90;;;;;;5030617;28;20184;-52
2023/08/25 03:55:05;;;;;;;19.63;17.30;;;19.40;99.90;;;;;;5032548;28;20270;-50
2023/08/25 03:57:33;;;;;;;20.50;17.37;;;19.30;99.90;;;;;;5028644;28;20216;-44
2023/08/25 04:00:00;;;;;;;23.20;16.90;;;19.30;99.90;;;;;;5019966;28;20200;-48
2023/08/25 04:02:28;;;;;;;21.70;17.20;;;19.30;99.90;;;;;;4997765;28;20207;-46
2023/08/25 04:04:55;;;;;;;20.10;18.07;;;19.30;99.90;;;;;;5030012;28;20214;-52
2023/08/25 04:07:22;;;;;;;20.93;17.23;;;19.30;99.90;;;;;;5020870;28;20193;-53
2023/08/25 04:09:49;;;;;;;20.20;17.77;;;19.30;99.90;;;;;;5030929;28;20196;-47
2023/08/25 04:12:16;;;;;;;19.20;16.67;;;19.30;99.90;;;;;;5024501;28;20195;-53
2023/08/25 04:14:44;;;;;;;20.77;17.80;;;19.30;99.90;;;;;;5020192;28;20935;-45
2023/08/25 04:17:11;;;;;;;22.67;18.73;;;19.20;99.90;;;;;;5016156;28;20273;-54
2023/08/25 04:19:40;;;;;;;20.53;18.33;;;19.20;99.90;;;;;;5010237;28;20200;-51
2023/08/25 04:22:07;;;;;;;20.90;18.80;;;19.20;99.90;;;;;;5016128;28;20238;-55
2023/08/25 04:24:34;;;;;;;20.00;17.90;;;19.20;99.90;;;;;;5028081;28;20212;-43
2023/08/25 04:27:01;;;;;;;25.27;19.57;;;19.20;99.90;;;;;;5014784;28;20196;-44
2023/08/25 04:29:28;;;;;;;22.23;18.47;;;19.20;99.90;;;;;;5026744;28;20254;-51
2023/08/25 04:31:57;;;;;;;23.03;19.20;;;19.20;99.90;;;;;;5007413;28;20210;-57
2023/08/25 04:34:35;;;;;;;21.90;18.60;;;19.10;99.90;;;;;;4997761;28;20242;-46
2023/08/25 04:37:03;;;;;;;22.53;19.20;;;19.20;99.90;;;;;;5010732;28;20318;-49
2023/08/25 04:39:30;;;;;;;24.43;19.63;;;19.10;99.90;;;;;;5018115;28;20647;-49
2023/08/25 04:41:57;;;;;;;21.87;19.57;;;19.20;99.90;;;;;;5019749;28;20901;-49
2023/08/25 04:44:23;;;;;;;22.90;19.00;;;19.10;99.90;;;;;;5023997;28;20227;-50
2023/08/25 04:46:53;;;;;;;21.63;19.07;;;19.10;99.90;;;;;;4999327;28;20204;-55
2023/08/25 04:49:19;;;;;;;25.60;20.37;;;19.10;99.90;;;;;;5022334;28;20214;-51
2023/08/25 04:51:46;;;;;;;22.87;18.87;;;19.20;99.90;;;;;;5003860;28;20236;-52
2023/08/25 04:54:14;;;;;;;23.63;18.83;;;19.20;99.90;;;;;;5006431;28;20655;-48
2023/08/25 04:56:46;;;;;;;23.20;19.83;;;19.20;99.90;;;;;;5030710;28;20226;-46
2023/08/25 04:59:13;;;;;;;20.87;18.77;;;19.20;99.90;;;;;;5009460;28;20238;-51
2023/08/25 05:01:40;;;;;;;24.80;20.23;;;19.20;99.90;;;;;;5011849;28;20212;-49
2023/08/25 05:04:08;;;;;;;25.53;19.87;;;19.20;99.90;;;;;;5013377;28;20262;-45
2023/08/25 05:06:35;;;;;;;26.77;20.63;;;19.20;99.90;;;;;;5009923;28;20207;-50
2023/08/25 05:09:02;;;;;;;23.53;19.80;;;19.20;99.90;;;;;;5018672;28;20207;-44
2023/08/25 05:11:33;;;;;;;21.93;19.43;;;19.20;99.90;;;;;;5023793;28;20204;-51
2023/08/25 05:14:00;;;;;;;24.57;19.90;;;19.30;99.90;;;;;;5028252;28;20264;-44
2023/08/25 05:16:27;;;;;;;24.03;20.20;;;19.30;99.90;;;;;;5014137;28;20235;-51
2023/08/25 05:19:03;;;;;;;28.37;23.30;;;19.40;99.90;;;;;;5009371;28;21194;-46
2023/08/25 05:21:30;;;;;;;24.97;22.17;;;19.40;99.90;;;;;;5004286;28;20212;-52
2023/08/25 05:24:17;;;;;;;24.77;20.87;;;19.40;99.90;;;;;;5021759;28;20211;-45
2023/08/25 05:26:51;;;;;;;30.90;23.30;;;19.50;99.90;;;;;;5014966;28;20196;-49
2023/08/25 05:29:18;;;;;;;31.07;23.40;;;19.50;99.90;;;;;;5020739;28;20286;-53
2023/08/25 05:31:45;;;;;;;27.53;23.80;;;19.50;99.90;;;;;;5010596;28;20207;-53
2023/08/25 05:34:31;;;;;;;29.77;24.30;;;19.50;99.90;;;;;;5013602;28;20272;-53
2023/08/25 05:37:03;;;;;;;30.87;25.43;;;19.50;99.90;;;;;;5005780;28;20849;-46
2023/08/25 05:39:30;;;;;;;31.33;24.60;;;19.50;99.90;;;;;;5032424;28;20216;-52
2023/08/25 05:41:58;;;;;;;32.90;26.03;;;19.60;99.90;;;;;;5006839;28;20192;-46
2023/08/25 05:44:25;;;;;;;30.27;25.57;;;19.60;99.90;;;;;;5022395;28;20216;-51
2023/08/25 05:46:53;;;;;;;35.60;26.57;;;19.60;99.90;;;;;;5009904;28;20200;-47
2023/08/25 05:49:20;;;;;;;37.87;26.83;;;19.60;99.90;;;;;;5014505;28;21814;-52
2023/08/25 05:51:47;;;;;;;34.30;26.63;;;19.60;99.90;;;;;;5020983;28;21848;-50
2023/08/25 05:54:15;;;;;;;33.77;27.53;;;19.60;99.90;;;;;;4999066;28;20314;-52
2023/08/25 05:56:42;;;;;;;39.83;27.63;;;19.70;99.90;;;;;;5014648;28;20226;-51
2023/08/25 05:59:10;;;;;;;40.93;30.80;;;19.70;99.90;;;;;;5014227;28;20258;-49
2023/08/25 06:01:37;;;;;;;36.67;29.73;;;19.70;99.90;;;;;;5007959;28;20285;-49
2023/08/25 06:04:04;;;;;;;38.70;29.97;;;19.70;99.90;;;;;;5028805;28;20227;-49
2023/08/25 06:06:31;;;;;;;40.10;32.00;;;19.70;99.90;;;;;;5011315;28;20228;-52
2023/08/25 06:08:58;;;;;;;41.67;30.40;;;19.70;99.90;;;;;;5006903;28;20264;-49
2023/08/25 06:11:25;;;;;;;37.83;30.87;;;19.70;99.90;;;;;;5019906;28;20838;-47
2023/08/25 06:13:51;;;;;;;38.50;30.73;;;19.70;99.90;;;;;;5017245;28;20231;-48
2023/08/25 06:16:20;;;;;;;44.43;32.03;;;19.80;99.90;;;;;;5021127;28;20200;-48
2023/08/25 06:18:47;;;;;;;40.20;30.83;;;19.80;99.90;;;;;;5020832;28;20195;-50
2023/08/25 06:21:14;;;;;;;43.17;30.77;;;19.80;99.90;;;;;;5020474;28;20208;-45
2023/08/25 06:23:41;;;;;;;34.97;29.97;;;19.80;99.90;;;;;;5023345;28;20216;-50
2023/08/25 06:26:07;;;;;;;34.47;27.50;;;19.90;99.90;;;;;;5010798;28;20202;-53
2023/08/25 06:28:34;;;;;;;36.63;29.37;;;20.00;99.90;;;;;;5013611;28;20250;-50
2023/08/25 06:31:01;;;;;;;37.47;29.57;;;20.00;99.90;;;;;;5021433;28;20212;-51
2023/08/25 06:33:31;;;;;;;37.07;29.13;;;20.00;99.90;;;;;;5010184;28;20921;-49
2023/08/25 06:35:58;;;;;;;39.23;31.00;;;20.00;99.90;;;;;;5029145;28;20659;-46
2023/08/25 06:38:24;;;;;;;38.97;29.63;;;20.10;99.90;;;;;;5012506;28;20733;-45
2023/08/25 06:40:52;;;;;;;36.47;29.27;;;20.10;99.90;;;;;;5010797;28;20254;-50
2023/08/25 06:43:19;;;;;;;39.77;30.13;;;20.10;99.90;;;;;;5016999;28;20208;-47
2023/08/25 06:45:46;;;;;;;40.33;31.90;;;20.20;99.90;;;;;;5015121;28;20199;-47
2023/08/25 06:48:13;;;;;;;37.07;29.17;;;20.20;99.90;;;;;;5023893;28;20653;-43
2023/08/25 06:50:41;;;;;;;35.17;28.37;;;20.20;99.90;;;;;;5025281;28;20876;-47
2023/08/25 06:53:08;;;;;;;40.03;29.33;;;20.30;99.90;;;;;;5017947;28;20580;-45
2023/08/25 06:55:35;;;;;;;39.47;30.03;;;20.30;99.90;;;;;;5020857;28;20249;-44
2023/08/25 06:58:02;;;;;;;38.33;28.77;;;20.30;99.90;;;;;;5007862;28;20364;-45
2023/08/25 07:00:29;;;;;;;40.37;31.03;;;20.40;99.90;;;;;;5005930;28;20187;-44
2023/08/25 07:02:56;;;;;;;38.80;29.40;;;20.40;99.90;;;;;;5021252;28;20246;-44
2023/08/25 07:05:23;;;;;;;41.13;30.60;;;20.40;99.90;;;;;;5006355;28;20200;-49
2023/08/25 07:07:52;;;;;;;37.73;29.47;;;20.40;99.90;;;;;;5012069;28;20200;-45
2023/08/25 07:10:19;;;;;;;41.77;30.13;;;20.40;99.90;;;;;;5014301;28;20572;-43
2023/08/25 07:12:46;;;;;;;37.07;28.70;;;20.40;99.90;;;;;;5005355;28;20303;-43
2023/08/25 07:15:13;;;;;;;35.43;27.80;;;20.40;99.90;;;;;;5006119;28;21200;-46
2023/08/25 07:17:40;;;;;;;36.90;28.80;;;20.60;99.90;;;;;;5018782;28;20215;-46
2023/08/25 07:20:09;;;;;;;37.57;27.50;;;20.60;99.90;;;;;;5012182;28;20204;-45
2023/08/25 07:22:36;;;;;;;33.50;27.40;;;20.70;99.90;;;;;;5014888;28;20666;-47
2023/08/25 07:25:05;;;;;;;34.70;27.97;;;20.70;99.90;;;;;;5014519;28;20350;-44
2023/08/25 07:27:32;;;;;;;36.28;26.75;;;20.70;99.90;;;;;;5003900;28;20275;-47
2023/08/25 07:29:59;;;;;;;33.60;27.30;;;20.80;99.90;;;;;;5011167;28;20278;-46
2023/08/25 07:32:27;;;;;;;35.35;27.33;;;20.80;99.90;;;;;;5025206;28;20211;-45
2023/08/25 07:34:53;;;;;;;34.17;25.73;;;20.90;99.90;;;;;;5008955;28;20602;-43
2023/08/25 07:37:21;;;;;;;32.88;26.25;;;21.00;99.90;;;;;;5012652;28;20803;-44
2023/08/25 07:39:51;;;;;;;29.07;24.13;;;21.00;99.90;;;;;;5024426;28;20195;-45
2023/08/25 07:42:21;;;;;;;28.90;22.55;;;21.00;99.90;;;;;;5001302;28;20204;-47
2023/08/25 07:44:49;;;;;;;26.73;22.63;;;21.00;99.90;;;;;;5026242;28;20226;-43
2023/08/25 07:47:16;;;;;;;26.20;21.15;;;21.10;99.90;;;;;;5013478;28;20313;-43
2023/08/25 07:49:43;;;;;;;27.15;22.02;;;21.10;99.90;;;;;;5011180;28;20246;-47
2023/08/25 07:52:10;;;;;;;24.52;20.30;;;21.20;99.90;;;;;;5006344;28;20204;-45
2023/08/25 07:54:37;;;;;;;24.85;20.52;;;21.30;99.90;;;;;;5013383;28;20281;-43
2023/08/25 07:57:04;;;;;;;23.77;19.25;;;21.30;99.90;;;;;;5019526;28;20828;-45
2023/08/25 07:59:33;;;;;;;21.73;18.83;;;21.40;99.90;;;;;;5006186;28;20203;-59
2023/08/25 08:02:00;;;;;;;23.40;19.27;;;21.40;99.90;;;;;;5017837;28;20262;-58
2023/08/25 08:04:30;;;;;;;23.42;19.17;;;21.50;99.90;;;;;;5027648;28;20231;-59
2023/08/25 08:06:57;;;;;;;21.13;18.17;;;21.60;99.90;;;;;;5013164;28;20204;-64
2023/08/25 08:09:25;;;;;;;23.73;19.75;;;21.60;99.90;;;;;;5009040;28;20200;-51
2023/08/25 08:11:52;;;;;;;19.95;16.98;;;21.60;99.90;;;;;;5014752;28;20208;-68
2023/08/25 08:14:19;;;;;;;20.00;16.88;;;21.60;99.90;;;;;;5009298;28;21054;-54
2023/08/25 08:16:47;;;;;;;21.52;18.08;;;21.60;99.90;;;;;;5021481;28;20203;-66
2023/08/25 08:19:14;;;;;;;21.17;18.50;;;21.60;99.90;;;;;;5012280;28;20223;-58
2023/08/25 08:21:41;;;;;;;22.02;18.48;;;21.60;99.90;;;;;;5024091;28;20200;-67
2023/08/25 08:24:09;;;;;;;24.67;17.80;;;21.60;99.90;;;;;;5006609;28;20309;-60
2023/08/25 08:26:36;;;;;;;24.48;18.10;;;21.60;99.90;;;;;;5009148;28;20693;-53
2023/08/25 08:29:03;;;;;;;21.08;18.52;;;21.70;99.90;;;;;;5004543;28;20363;-60
2023/08/25 08:31:30;;;;;;;21.92;18.52;;;21.70;99.90;;;;;;5022785;28;20208;-60
2023/08/25 08:33:58;;;;;;;21.15;18.02;;;21.60;99.90;;;;;;5013541;28;20227;-66
2023/08/25 08:36:25;;;;;;;20.08;17.85;;;21.70;99.90;;;;;;5014231;28;20220;-60
2023/08/25 08:38:52;;;;;;;21.90;19.00;;;21.70;99.90;;;;;;5006232;28;20227;-69
2023/08/25 08:41:20;;;;;;;25.30;19.50;;;21.80;99.90;;;;;;5015780;28;20203;-63
2023/08/25 08:43:48;;;;;;;22.13;19.92;;;21.90;99.90;;;;;;5011550;28;20643;-73
2023/08/25 08:46:16;;;;;;;21.95;19.42;;;21.90;99.90;;;;;;5020985;28;20286;-59
2023/08/25 08:48:44;;;;;;;23.08;18.33;;;22.00;99.90;;;;;;5031398;28;20192;-70
2023/08/25 08:51:15;;;;;;;23.48;18.35;;;22.00;99.90;;;;;;5019090;28;20195;-58
2023/08/25 08:53:43;;;;;;;20.63;18.42;;;22.00;99.90;;;;;;5016175;28;20208;-70
2023/08/25 08:56:10;;;;;;;21.40;17.15;;;22.00;99.90;;;;;;5021076;28;20195;-58
2023/08/25 08:58:37;;;;;;;21.40;17.83;;;22.00;99.90;;;;;;5016005;28;20251;-57
2023/08/25 09:01:05;;;;;;;21.42;17.80;;;22.00;99.90;;;;;;5005085;28;20199;-62
2023/08/25 09:03:34;;;;;;;20.45;17.23;;;22.10;99.90;;;;;;5027834;28;20216;-61
2023/08/25 09:06:03;;;;;;;20.67;18.23;;;22.10;99.90;;;;;;5008642;28;20970;-61
2023/08/25 09:08:32;;;;;;;22.10;18.00;;;22.10;99.90;;;;;;5024987;28;20199;-56
2023/08/25 09:11:00;;;;;;;19.35;17.15;;;22.20;99.90;;;;;;5002464;28;20207;-61
2023/08/25 09:13:27;;;;;;;20.23;16.45;;;22.10;99.90;;;;;;5014536;28;20222;-57
2023/08/25 09:15:56;;;;;;;20.00;16.90;;;22.20;99.90;;;;;;5002967;28;20211;-62
2023/08/25 09:18:22;;;;;;;21.25;18.67;;;22.30;99.90;;;;;;5013661;28;20232;-63
2023/08/25 09:20:49;;;;;;;21.60;19.27;;;22.30;99.90;;;;;;5012353;28;20254;-64
2023/08/25 09:23:16;;;;;;;24.42;20.08;;;22.20;99.90;;;;;;5010056;28;20224;-62
2023/08/25 09:25:44;;;;;;;21.70;17.15;;;22.20;99.90;;;;;;5019021;28;20338;-67
2023/08/25 09:28:11;;;;;;;23.10;19.55;;;22.10;99.90;;;;;;5005817;28;21276;-61
2023/08/25 09:30:40;;;;;;;19.67;17.50;;;22.10;99.90;;;;;;5023841;28;20215;-60
2023/08/25 09:33:08;;;;;;;23.15;18.63;;;22.00;99.90;;;;;;5005244;28;20227;-63
2023/08/25 09:35:36;;;;;;;20.55;17.17;;;22.10;99.90;;;;;;5016602;28;20204;-59
2023/08/25 09:38:03;;;;;;;18.73;16.38;;;22.10;99.90;;;;;;5015080;28;21030;-63
2023/08/25 09:40:31;;;;;;;22.75;18.48;;;22.10;99.90;;;;;;5022437;28;20226;-61
2023/08/25 09:43:01;;;;;;;19.83;17.20;;;22.10;99.90;;;;;;5001518;28;20630;-68
2023/08/25 09:45:29;;;;;;;18.02;15.77;;;22.10;99.90;;;;;;5022567;28;20208;-60
2023/08/25 09:48:05;;;;;;;17.77;15.52;;;22.10;99.90;;;;;;5003287;28;20287;-66
2023/08/25 09:50:36;;;;;;;18.15;16.25;;;22.10;99.90;;;;;;5030912;28;20207;-60
2023/08/25 09:53:05;;;;;;;19.75;15.98;;;22.10;99.90;;;;;;5011913;28;20226;-59
2023/08/25 09:55:34;;;;;;;18.08;15.80;;;22.10;99.90;;;;;;5016958;28;20208;-57
2023/08/25 09:58:04;;;;;;;17.40;14.73;;;22.10;99.90;;;;;;5011147;28;20297;-64
2023/08/25 10:00:33;;;;;;;18.63;16.15;;;22.20;99.90;;;;;;5020916;28;20262;-60
2023/08/25 10:03:01;;;;;;;17.25;14.25;;;21.80;99.90;;;;;;5004393;28;20276;-59
2023/08/25 10:05:30;;;;;;;16.17;14.48;;;22.50;99.90;;;;;;5024182;28;20287;-61
2023/08/25 10:07:57;;;;;;;16.98;15.18;;;22.60;99.90;;;;;;5010325;28;20263;-63
2023/08/25 10:10:25;;;;;;;19.15;15.65;;;22.70;99.90;;;;;;5011850;28;20219;-52
2023/08/25 10:12:55;;;;;;;17.77;15.85;;;22.60;99.90;;;;;;5019380;28;20262;-59
2023/08/25 10:15:25;;;;;;;16.20;13.82;;;22.50;99.90;;;;;;5008571;28;20199;-65
2023/08/25 10:17:54;;;;;;;15.68;13.77;;;22.50;99.90;;;;;;4999376;28;20216;-63
2023/08/25 10:20:23;;;;;;;17.90;14.07;;;22.40;99.90;;;;;;5030026;28;20249;-59
2023/08/25 10:22:51;;;;;;;15.18;13.65;;;22.50;99.90;;;;;;5018063;28;20901;-51
2023/08/25 10:25:19;;;;;;;16.70;14.15;;;22.40;99.90;;;;;;5016669;28;20207;-61
2023/08/25 10:27:46;;;;;;;15.93;14.27;;;22.50;99.90;;;;;;5006678;28;20560;-57
2023/08/25 10:30:14;;;;;;;16.52;14.80;;;22.50;99.90;;;;;;5010503;28;20261;-57
2023/08/25 10:32:55;;;;;;;18.55;16.52;;;22.50;99.90;;;;;;5006497;28;20207;-60
2023/08/25 10:35:49;;;;;;;16.00;14.07;;;22.50;99.90;;;;;;5017217;28;20212;-61
2023/08/25 10:38:34;;;;;;;17.73;13.93;;;22.50;99.90;;;;;;4987573;28;20263;-62
2023/08/25 10:41:21;;;;;;;13.95;12.52;;;22.60;99.90;;;;;;5010950;28;20198;-62
2023/08/25 10:43:51;;;;;;;14.48;12.82;;;22.60;99.90;;;;;;5008043;28;20239;-53
2023/08/25 10:46:19;;;;;;;16.10;13.07;;;22.70;99.90;;;;;;5003878;28;20207;-57
2023/08/25 10:48:49;;;;;;;14.63;13.25;;;22.70;99.90;;;;;;5004230;28;20196;-49
2023/08/25 10:51:20;;;;;;;21.38;15.80;;;22.70;99.90;;;;;;5019592;28;20199;-56
2023/08/25 10:53:50;;;;;;;17.15;13.68;;;22.70;99.90;;;;;;5017407;28;20239;-48
2023/08/25 10:56:22;;;;;;;16.60;14.02;;;22.60;99.90;;;;;;5009316;28;20192;-51
2023/08/25 10:59:00;;;;;;;15.38;13.77;;;22.60;99.90;;;;;;5014022;28;20296;-56
2023/08/25 11:01:50;;;;;;;13.48;12.00;;;22.60;99.90;;;;;;5011914;28;20207;-47
2023/08/25 11:04:24;;;;;;;14.13;12.75;;;22.50;99.90;;;;;;4998194;28;22841;-57
2023/08/25 11:06:52;;;;;;;13.60;12.18;;;22.50;99.90;;;;;;5023388;28;20200;-56
2023/08/25 11:09:35;;;;;;;14.50;12.45;;;22.50;99.90;;;;;;5018117;28;20195;-45
2023/08/25 11:12:06;;;;;;;13.68;11.52;;;22.50;99.90;;;;;;5005241;28;20215;-57
2023/08/25 11:14:35;;;;;;;13.23;11.15;;;22.50;99.90;;;;;;5024460;28;20707;-45
2023/08/25 11:17:03;;;;;;;16.60;11.30;;;22.40;99.90;;;;;;5000882;28;20635;-57
2023/08/25 11:19:33;;;;;;;13.20;11.30;;;22.40;99.90;;;;;;5024483;28;20235;-44
2023/08/25 11:22:01;;;;;;;15.00;12.70;;;22.50;99.90;;;;;;5012553;28;20208;-56
2023/08/25 11:24:29;;;;;;;16.02;12.55;;;22.50;99.90;;;;;;5027550;28;20273;-44
2023/08/25 11:26:56;;;;;;;13.88;12.00;;;22.40;99.90;;;;;;5010660;28;20207;-57
2023/08/25 11:29:23;;;;;;;13.80;12.35;;;22.40;99.90;;;;;;5023783;28;20184;-50
2023/08/25 11:31:50;;;;;;;13.02;11.43;;;22.40;99.90;;;;;;5020141;28;20289;-46
2023/08/25 11:34:17;;;;;;;12.52;11.18;;;22.30;99.90;;;;;;5019354;28;21233;-52
2023/08/25 11:36:45;;;;;;;17.77;11.10;;;22.30;99.90;;;;;;5010664;28;20231;-47
2023/08/25 11:39:19;;;;;;;15.32;11.82;;;22.40;99.90;;;;;;5017100;28;20212;-50
2023/08/25 11:41:46;;;;;;;17.45;11.38;;;22.40;99.90;;;;;;5021570;28;20314;-45
2023/08/25 11:44:14;;;;;;;14.52;11.88;;;22.30;99.90;;;;;;5016153;28;20224;-52
2023/08/25 11:46:42;;;;;;;12.93;10.43;;;22.20;99.90;;;;;;5023893;28;20204;-51
2023/08/25 11:49:09;;;;;;;13.07;11.43;;;22.20;99.90;;;;;;5017250;28;20242;-53
2023/08/25 11:51:36;;;;;;;12.05;10.77;;;22.20;99.90;;;;;;5009426;28;20682;-54
2023/08/25 11:54:05;;;;;;;12.82;11.40;;;22.20;99.90;;;;;;5026602;28;20211;-46
2023/08/25 11:56:31;;;;;;;13.63;11.25;;;22.20;99.90;;;;;;5025987;28;20736;-45
2023/08/25 11:59:00;;;;;;;15.73;11.90;;;22.20;99.90;;;;;;5009335;28;20293;-44
2023/08/25 12:01:34;;;;;;;14.93;11.10;;;22.10;99.90;;;;;;5016630;28;20208;-51
2023/08/25 12:04:20;;;;;;;13.02;11.40;;;22.20;99.90;;;;;;5008816;28;20333;-47
2023/08/25 12:06:47;;;;;;;12.10;10.85;;;22.10;99.90;;;;;;5000809;28;20413;-48
2023/08/25 12:09:15;;;;;;;32.53;14.48;;;22.10;99.90;;;;;;5017746;28;20605;-44
2023/08/25 12:11:42;;;;;;;19.25;11.48;;;22.10;99.90;;;;;;5018111;28;20199;-48
2023/08/25 12:14:23;;;;;;;12.73;10.52;;;22.10;99.90;;;;;;5012213;28;20570;-47
2023/08/25 12:16:50;;;;;;;11.40;9.77;;;22.10;99.90;;;;;;5015439;28;20600;-49
2023/08/25 12:19:17;;;;;;;11.30;9.98;;;22.10;99.90;;;;;;5023629;28;20212;-47
2023/08/25 12:21:43;;;;;;;12.75;11.25;;;22.20;99.90;;;;;;5014061;28;21938;-50
2023/08/25 12:24:10;;;;;;;12.15;11.05;;;22.20;99.90;;;;;;5018085;28;20220;-50
2023/08/25 12:26:40;;;;;;;16.30;12.23;;;22.10;99.90;;;;;;5025509;28;20184;-52
2023/08/25 12:29:07;;;;;;;15.38;13.43;;;22.10;99.90;;;;;;5020743;28;20277;-49
2023/08/25 12:31:34;;;;;;;14.02;12.52;;;22.10;99.90;;;;;;5015665;28;20694;-49
2023/08/25 12:34:01;;;;;;;14.93;13.40;;;22.00;99.90;;;;;;5020612;28;20242;-49
2023/08/25 12:36:29;;;;;;;14.90;13.30;;;22.00;99.90;;;;;;4994974;28;24554;-48